sensor_id;sensor_type;location;lat;lon;timestamp;temperature;humidity
45765;DHT22;31474;45.332;10.230;2022-09-24T00:00:54;18.10;93.00
45765;DHT22;31474;45.332;10.230;2022-09-24T00:03:22;18.00;93.10
45765;DHT22;31474;45.332;10.230;2022-09-24T00:05:50;18.00;93.10
45765;DHT22;31474;45.332;10.230;2022-09-24T00:08:17;18.00;93.30
45765;DHT22;31474;45.332;10.230;2022-09-24T00:10:44;18.00;93.30
45765;DHT22;31474;45.332;10.230;2022-09-24T00:13:14;17.90;93.20
45765;DHT22;31474;45.332;10.230;2022-09-24T00:15:47;17.90;93.40
45765;DHT22;31474;45.332;10.230;2022-09-24T00:18:14;17.90;93.40
45765;DHT22;31474;45.332;10.230;2022-09-24T00:20:40;17.90;93.40
45765;DHT22;31474;45.332;10.230;2022-09-24T00:23:08;17.90;93.60
45765;DHT22;31474;45.332;10.230;2022-09-24T00:25:39;18.00;93.40
45765;DHT22;31474;45.332;10.230;2022-09-24T00:28:23;18.00;93.60
45765;DHT22;31474;45.332;10.230;2022-09-24T00:30:49;18.00;93.60
45765;DHT22;31474;45.332;10.230;2022-09-24T00:33:16;17.90;93.40
45765;DHT22;31474;45.332;10.230;2022-09-24T00:35:41;18.00;93.40
45765;DHT22;31474;45.332;10.230;2022-09-24T00:38:07;18.00;93.50
45765;DHT22;31474;45.332;10.230;2022-09-24T00:40:35;18.00;93.30
45765;DHT22;31474;45.332;10.230;2022-09-24T00:43:19;18.00;93.40
45765;DHT22;31474;45.332;10.230;2022-09-24T00:45:45;18.00;93.50
45765;DHT22;31474;45.332;10.230;2022-09-24T00:48:11;18.00;93.40
45765;DHT22;31474;45.332;10.230;2022-09-24T00:50:36;17.90;93.40
45765;DHT22;31474;45.332;10.230;2022-09-24T00:53:18;17.90;93.60
45765;DHT22;31474;45.332;10.230;2022-09-24T00:55:48;17.90;93.70
45765;DHT22;31474;45.332;10.230;2022-09-24T00:58:15;17.90;93.40
45765;DHT22;31474;45.332;10.230;2022-09-24T01:00:41;18.00;93.40
45765;DHT22;31474;45.332;10.230;2022-09-24T01:03:22;18.00;93.30
45765;DHT22;31474;45.332;10.230;2022-09-24T01:05:48;18.00;93.60
45765;DHT22;31474;45.332;10.230;2022-09-24T01:08:16;17.90;93.40
45765;DHT22;31474;45.332;10.230;2022-09-24T01:13:30;17.80;93.40
45765;DHT22;31474;45.332;10.230;2022-09-24T01:16:08;17.90;93.70
45765;DHT22;31474;45.332;10.230;2022-09-24T01:18:40;17.90;93.70
45765;DHT22;31474;45.332;10.230;2022-09-24T01:21:29;17.90;93.50
45765;DHT22;31474;45.332;10.230;2022-09-24T01:29:37;17.80;93.70
45765;DHT22;31474;45.332;10.230;2022-09-24T01:34:48;17.70;93.70
45765;DHT22;31474;45.332;10.230;2022-09-24T01:37:17;17.70;93.70
45765;DHT22;31474;45.332;10.230;2022-09-24T01:39:45;17.60;93.50
45765;DHT22;31474;45.332;10.230;2022-09-24T01:42:12;17.70;93.80
45765;DHT22;31474;45.332;10.230;2022-09-24T01:44:39;17.70;93.60
45765;DHT22;31474;45.332;10.230;2022-09-24T01:47:09;17.60;93.80
45765;DHT22;31474;45.332;10.230;2022-09-24T01:49:38;17.60;93.70
45765;DHT22;31474;45.332;10.230;2022-09-24T01:52:08;17.60;93.50
45765;DHT22;31474;45.332;10.230;2022-09-24T01:54:38;17.60;93.90
45765;DHT22;31474;45.332;10.230;2022-09-24T01:57:34;17.60;93.90
45765;DHT22;31474;45.332;10.230;2022-09-24T02:00:03;17.60;93.70
45765;DHT22;31474;45.332;10.230;2022-09-24T02:02:35;17.70;93.60
45765;DHT22;31474;45.332;10.230;2022-09-24T02:05:09;17.60;93.60
45765;DHT22;31474;45.332;10.230;2022-09-24T02:07:46;17.60;93.60
45765;DHT22;31474;45.332;10.230;2022-09-24T02:10:17;17.60;93.80
45765;DHT22;31474;45.332;10.230;2022-09-24T02:12:47;17.60;93.50
45765;DHT22;31474;45.332;10.230;2022-09-24T02:15:27;17.60;93.70
45765;DHT22;31474;45.332;10.230;2022-09-24T02:17:57;17.60;93.80
45765;DHT22;31474;45.332;10.230;2022-09-24T02:20:25;17.60;93.50
45765;DHT22;31474;45.332;10.230;2022-09-24T02:22:54;17.70;93.50
45765;DHT22;31474;45.332;10.230;2022-09-24T02:25:27;17.70;93.60
45765;DHT22;31474;45.332;10.230;2022-09-24T02:27:54;17.70;93.50
45765;DHT22;31474;45.332;10.230;2022-09-24T02:30:20;17.70;93.90
45765;DHT22;31474;45.332;10.230;2022-09-24T02:32:47;17.70;93.40
45765;DHT22;31474;45.332;10.230;2022-09-24T02:35:13;17.60;93.60
45765;DHT22;31474;45.332;10.230;2022-09-24T02:37:41;17.70;93.50
45765;DHT22;31474;45.332;10.230;2022-09-24T02:40:10;17.60;93.70
45765;DHT22;31474;45.332;10.230;2022-09-24T02:42:36;17.60;93.70
45765;DHT22;31474;45.332;10.230;2022-09-24T02:45:03;17.60;93.60
45765;DHT22;31474;45.332;10.230;2022-09-24T02:47:29;17.50;93.70
45765;DHT22;31474;45.332;10.230;2022-09-24T02:49:54;17.50;93.80
45765;DHT22;31474;45.332;10.230;2022-09-24T02:52:21;17.50;93.70
45765;DHT22;31474;45.332;10.230;2022-09-24T02:54:47;17.50;93.80
45765;DHT22;31474;45.332;10.230;2022-09-24T02:57:15;17.50;93.80
45765;DHT22;31474;45.332;10.230;2022-09-24T02:59:41;17.40;93.80
45765;DHT22;31474;45.332;10.230;2022-09-24T03:02:07;17.40;93.70
45765;DHT22;31474;45.332;10.230;2022-09-24T03:04:32;17.50;93.80
45765;DHT22;31474;45.332;10.230;2022-09-24T03:06:58;17.50;93.70
45765;DHT22;31474;45.332;10.230;2022-09-24T03:09:24;17.50;93.50
45765;DHT22;31474;45.332;10.230;2022-09-24T03:11:49;17.50;93.60
45765;DHT22;31474;45.332;10.230;2022-09-24T03:14:15;17.50;93.40
45765;DHT22;31474;45.332;10.230;2022-09-24T03:16:40;17.60;93.40
45765;DHT22;31474;45.332;10.230;2022-09-24T03:19:06;17.50;93.30
45765;DHT22;31474;45.332;10.230;2022-09-24T03:21:32;17.50;93.30
45765;DHT22;31474;45.332;10.230;2022-09-24T03:23:58;17.60;93.30
45765;DHT22;31474;45.332;10.230;2022-09-24T03:26:25;17.60;93.30
45765;DHT22;31474;45.332;10.230;2022-09-24T03:28:50;17.60;93.30
45765;DHT22;31474;45.332;10.230;2022-09-24T03:31:16;17.60;93.30
45765;DHT22;31474;45.332;10.230;2022-09-24T03:33:47;17.60;93.50
45765;DHT22;31474;45.332;10.230;2022-09-24T03:36:19;17.60;93.60
45765;DHT22;31474;45.332;10.230;2022-09-24T03:38:46;17.60;93.50
45765;DHT22;31474;45.332;10.230;2022-09-24T03:41:13;17.60;93.40
45765;DHT22;31474;45.332;10.230;2022-09-24T03:43:39;17.60;93.60
45765;DHT22;31474;45.332;10.230;2022-09-24T03:46:06;17.60;93.50
45765;DHT22;31474;45.332;10.230;2022-09-24T03:48:36;17.60;93.60
45765;DHT22;31474;45.332;10.230;2022-09-24T03:51:03;17.50;93.50
45765;DHT22;31474;45.332;10.230;2022-09-24T03:53:29;17.50;93.70
45765;DHT22;31474;45.332;10.230;2022-09-24T03:55:56;17.50;93.60
45765;DHT22;31474;45.332;10.230;2022-09-24T03:58:22;17.50;93.60
45765;DHT22;31474;45.332;10.230;2022-09-24T04:00:51;17.50;93.60
45765;DHT22;31474;45.332;10.230;2022-09-24T04:03:17;17.50;93.70
45765;DHT22;31474;45.332;10.230;2022-09-24T04:05:42;17.60;93.80
45765;DHT22;31474;45.332;10.230;2022-09-24T04:08:08;17.60;93.70
45765;DHT22;31474;45.332;10.230;2022-09-24T04:10:34;17.60;93.60
45765;DHT22;31474;45.332;10.230;2022-09-24T04:12:59;17.60;93.60
45765;DHT22;31474;45.332;10.230;2022-09-24T04:15:26;17.60;93.60
45765;DHT22;31474;45.332;10.230;2022-09-24T04:17:53;17.60;93.80
45765;DHT22;31474;45.332;10.230;2022-09-24T04:20:20;17.60;93.90
45765;DHT22;31474;45.332;10.230;2022-09-24T04:22:48;17.60;93.70
45765;DHT22;31474;45.332;10.230;2022-09-24T04:25:14;17.60;94.00
45765;DHT22;31474;45.332;10.230;2022-09-24T04:27:40;17.50;93.80
45765;DHT22;31474;45.332;10.230;2022-09-24T04:30:06;17.50;93.80
45765;DHT22;31474;45.332;10.230;2022-09-24T04:32:32;17.60;93.90
45765;DHT22;31474;45.332;10.230;2022-09-24T04:34:58;17.60;93.90
45765;DHT22;31474;45.332;10.230;2022-09-24T04:37:23;17.60;94.00
45765;DHT22;31474;45.332;10.230;2022-09-24T04:39:49;17.50;93.90
45765;DHT22;31474;45.332;10.230;2022-09-24T04:42:18;17.50;94.00
45765;DHT22;31474;45.332;10.230;2022-09-24T04:44:44;17.50;94.10
45765;DHT22;31474;45.332;10.230;2022-09-24T04:47:15;17.40;94.10
45765;DHT22;31474;45.332;10.230;2022-09-24T04:49:42;17.40;94.00
45765;DHT22;31474;45.332;10.230;2022-09-24T04:52:11;17.50;94.00
45765;DHT22;31474;45.332;10.230;2022-09-24T04:54:40;17.50;93.90
45765;DHT22;31474;45.332;10.230;2022-09-24T04:57:10;17.60;93.90
45765;DHT22;31474;45.332;10.230;2022-09-24T04:59:36;17.60;93.90
45765;DHT22;31474;45.332;10.230;2022-09-24T05:02:01;17.50;94.00
45765;DHT22;31474;45.332;10.230;2022-09-24T05:04:27;17.50;94.00
45765;DHT22;31474;45.332;10.230;2022-09-24T05:06:54;17.60;94.00
45765;DHT22;31474;45.332;10.230;2022-09-24T05:09:20;17.60;94.10
45765;DHT22;31474;45.332;10.230;2022-09-24T05:11:45;17.60;94.00
45765;DHT22;31474;45.332;10.230;2022-09-24T05:14:11;17.60;93.90
45765;DHT22;31474;45.332;10.230;2022-09-24T05:16:36;17.60;94.00
45765;DHT22;31474;45.332;10.230;2022-09-24T05:19:02;17.60;94.00
45765;DHT22;31474;45.332;10.230;2022-09-24T05:21:29;17.60;94.00
45765;DHT22;31474;45.332;10.230;2022-09-24T05:23:55;17.60;94.10
45765;DHT22;31474;45.332;10.230;2022-09-24T05:26:21;17.50;94.10
45765;DHT22;31474;45.332;10.230;2022-09-24T05:29:05;17.50;94.10
45765;DHT22;31474;45.332;10.230;2022-09-24T05:31:31;17.50;94.10
45765;DHT22;31474;45.332;10.230;2022-09-24T05:33:56;17.50;94.20
45765;DHT22;31474;45.332;10.230;2022-09-24T05:36:22;17.50;94.20
45765;DHT22;31474;45.332;10.230;2022-09-24T05:38:48;17.50;94.10
45765;DHT22;31474;45.332;10.230;2022-09-24T05:41:14;17.50;94.30
45765;DHT22;31474;45.332;10.230;2022-09-24T05:43:39;17.50;94.30
45765;DHT22;31474;45.332;10.230;2022-09-24T05:46:05;17.50;94.40
45765;DHT22;31474;45.332;10.230;2022-09-24T05:48:32;17.50;94.30
45765;DHT22;31474;45.332;10.230;2022-09-24T05:51:00;17.50;94.30
45765;DHT22;31474;45.332;10.230;2022-09-24T05:53:25;17.50;94.30
45765;DHT22;31474;45.332;10.230;2022-09-24T05:55:51;17.50;94.30
45765;DHT22;31474;45.332;10.230;2022-09-24T05:58:17;17.60;94.30
45765;DHT22;31474;45.332;10.230;2022-09-24T06:00:43;17.60;94.30
45765;DHT22;31474;45.332;10.230;2022-09-24T06:03:12;17.50;94.30
45765;DHT22;31474;45.332;10.230;2022-09-24T06:05:38;17.60;94.60
45765;DHT22;31474;45.332;10.230;2022-09-24T06:08:04;17.60;94.30
45765;DHT22;31474;45.332;10.230;2022-09-24T06:10:31;17.60;94.30
45765;DHT22;31474;45.332;10.230;2022-09-24T06:12:56;17.60;94.30
45765;DHT22;31474;45.332;10.230;2022-09-24T06:15:22;17.60;94.20
45765;DHT22;31474;45.332;10.230;2022-09-24T06:17:51;17.60;94.30
45765;DHT22;31474;45.332;10.230;2022-09-24T06:20:17;17.60;94.40
45765;DHT22;31474;45.332;10.230;2022-09-24T06:22:42;17.60;94.40
45765;DHT22;31474;45.332;10.230;2022-09-24T06:25:08;17.60;94.50
45765;DHT22;31474;45.332;10.230;2022-09-24T06:27:34;17.70;94.60
45765;DHT22;31474;45.332;10.230;2022-09-24T06:29:59;17.70;94.50
45765;DHT22;31474;45.332;10.230;2022-09-24T06:32:25;17.70;94.50
45765;DHT22;31474;45.332;10.230;2022-09-24T06:34:51;17.70;94.50
45765;DHT22;31474;45.332;10.230;2022-09-24T06:37:16;17.70;94.60
45765;DHT22;31474;45.332;10.230;2022-09-24T06:39:42;17.70;94.60
45765;DHT22;31474;45.332;10.230;2022-09-24T06:42:08;17.70;94.60
45765;DHT22;31474;45.332;10.230;2022-09-24T06:44:36;17.80;94.70
45765;DHT22;31474;45.332;10.230;2022-09-24T06:47:02;17.80;94.80
45765;DHT22;31474;45.332;10.230;2022-09-24T06:49:27;17.80;94.70
45765;DHT22;31474;45.332;10.230;2022-09-24T06:51:53;17.80;94.70
45765;DHT22;31474;45.332;10.230;2022-09-24T06:54:19;17.70;94.60
45765;DHT22;31474;45.332;10.230;2022-09-24T06:56:45;17.70;94.70
45765;DHT22;31474;45.332;10.230;2022-09-24T06:59:11;17.70;94.70
45765;DHT22;31474;45.332;10.230;2022-09-24T07:01:37;17.70;94.80
45765;DHT22;31474;45.332;10.230;2022-09-24T07:04:02;17.70;94.80
45765;DHT22;31474;45.332;10.230;2022-09-24T07:06:28;17.70;94.80
45765;DHT22;31474;45.332;10.230;2022-09-24T07:09:13;17.60;94.80
45765;DHT22;31474;45.332;10.230;2022-09-24T07:11:39;17.60;94.70
45765;DHT22;31474;45.332;10.230;2022-09-24T07:14:05;17.60;94.90
45765;DHT22;31474;45.332;10.230;2022-09-24T07:16:31;17.60;95.00
45765;DHT22;31474;45.332;10.230;2022-09-24T07:18:56;17.70;94.90
45765;DHT22;31474;45.332;10.230;2022-09-24T07:21:22;17.70;95.00
45765;DHT22;31474;45.332;10.230;2022-09-24T07:23:48;17.70;95.00
45765;DHT22;31474;45.332;10.230;2022-09-24T07:26:13;17.70;95.00
45765;DHT22;31474;45.332;10.230;2022-09-24T07:28:39;17.70;95.10
45765;DHT22;31474;45.332;10.230;2022-09-24T07:31:05;17.70;95.10
45765;DHT22;31474;45.332;10.230;2022-09-24T07:33:31;17.70;95.10
45765;DHT22;31474;45.332;10.230;2022-09-24T07:35:56;17.70;95.10
45765;DHT22;31474;45.332;10.230;2022-09-24T07:38:22;17.70;95.10
45765;DHT22;31474;45.332;10.230;2022-09-24T07:40:48;17.70;95.00
45765;DHT22;31474;45.332;10.230;2022-09-24T07:43:14;17.80;95.20
45765;DHT22;31474;45.332;10.230;2022-09-24T07:45:41;17.70;95.10
45765;DHT22;31474;45.332;10.230;2022-09-24T07:48:08;17.70;95.10
45765;DHT22;31474;45.332;10.230;2022-09-24T07:50:38;17.80;95.10
45765;DHT22;31474;45.332;10.230;2022-09-24T07:53:04;17.80;95.20
45765;DHT22;31474;45.332;10.230;2022-09-24T07:55:30;17.80;95.10
45765;DHT22;31474;45.332;10.230;2022-09-24T07:57:56;17.80;95.20
45765;DHT22;31474;45.332;10.230;2022-09-24T08:00:23;17.80;95.50
45765;DHT22;31474;45.332;10.230;2022-09-24T08:02:49;17.80;95.60
45765;DHT22;31474;45.332;10.230;2022-09-24T08:05:16;17.80;95.40
45765;DHT22;31474;45.332;10.230;2022-09-24T08:07:49;17.80;95.60
45765;DHT22;31474;45.332;10.230;2022-09-24T08:10:15;17.80;95.50
45765;DHT22;31474;45.332;10.230;2022-09-24T08:12:41;17.80;95.50
45765;DHT22;31474;45.332;10.230;2022-09-24T08:15:07;17.90;95.60
45765;DHT22;31474;45.332;10.230;2022-09-24T08:17:32;17.90;95.40
45765;DHT22;31474;45.332;10.230;2022-09-24T08:19:58;17.80;95.40
45765;DHT22;31474;45.332;10.230;2022-09-24T08:22:24;17.80;95.50
45765;DHT22;31474;45.332;10.230;2022-09-24T08:24:51;17.80;95.50
45765;DHT22;31474;45.332;10.230;2022-09-24T08:27:17;17.70;95.50
45765;DHT22;31474;45.332;10.230;2022-09-24T08:29:45;17.80;95.60
45765;DHT22;31474;45.332;10.230;2022-09-24T08:32:11;17.80;95.60
45765;DHT22;31474;45.332;10.230;2022-09-24T08:34:38;17.80;95.70
45765;DHT22;31474;45.332;10.230;2022-09-24T08:37:05;17.80;95.70
45765;DHT22;31474;45.332;10.230;2022-09-24T08:39:34;17.80;95.60
45765;DHT22;31474;45.332;10.230;2022-09-24T08:42:04;17.80;95.50
45765;DHT22;31474;45.332;10.230;2022-09-24T08:44:40;17.80;95.60
45765;DHT22;31474;45.332;10.230;2022-09-24T08:50:29;17.90;95.70
45765;DHT22;31474;45.332;10.230;2022-09-24T08:55:48;17.80;95.40
45765;DHT22;31474;45.332;10.230;2022-09-24T09:01:11;17.80;95.50
45765;DHT22;31474;45.332;10.230;2022-09-24T09:12:19;17.80;95.90
45765;DHT22;31474;45.332;10.230;2022-09-24T09:15:31;17.80;95.50
45765;DHT22;31474;45.332;10.230;2022-09-24T09:18:09;17.80;95.40
45765;DHT22;31474;45.332;10.230;2022-09-24T09:20:42;17.70;95.70
45765;DHT22;31474;45.332;10.230;2022-09-24T09:23:33;17.60;95.60
45765;DHT22;31474;45.332;10.230;2022-09-24T09:25:59;17.60;95.80
45765;DHT22;31474;45.332;10.230;2022-09-24T09:28:26;17.60;95.40
45765;DHT22;31474;45.332;10.230;2022-09-24T09:39:37;17.70;95.70
45765;DHT22;31474;45.332;10.230;2022-09-24T09:44:41;17.70;95.50
45765;DHT22;31474;45.332;10.230;2022-09-24T09:49:51;17.80;95.60
45765;DHT22;31474;45.332;10.230;2022-09-24T09:52:20;17.80;95.60
45765;DHT22;31474;45.332;10.230;2022-09-24T09:54:46;17.90;95.50
45765;DHT22;31474;45.332;10.230;2022-09-24T09:57:20;17.90;95.40
45765;DHT22;31474;45.332;10.230;2022-09-24T09:59:52;17.90;95.60
45765;DHT22;31474;45.332;10.230;2022-09-24T10:04:52;18.00;95.80
45765;DHT22;31474;45.332;10.230;2022-09-24T10:07:19;18.10;96.30
45765;DHT22;31474;45.332;10.230;2022-09-24T10:09:45;18.10;96.00
45765;DHT22;31474;45.332;10.230;2022-09-24T10:12:17;18.10;96.30
45765;DHT22;31474;45.332;10.230;2022-09-24T10:15:04;18.10;96.30
45765;DHT22;31474;45.332;10.230;2022-09-24T10:17:40;18.10;97.70
45765;DHT22;31474;45.332;10.230;2022-09-24T10:20:24;18.10;97.30
45765;DHT22;31474;45.332;10.230;2022-09-24T10:23:02;17.90;97.50
45765;DHT22;31474;45.332;10.230;2022-09-24T10:25:30;17.90;98.10
45765;DHT22;31474;45.332;10.230;2022-09-24T10:27:59;17.90;97.20
45765;DHT22;31474;45.332;10.230;2022-09-24T10:30:59;17.90;97.40
45765;DHT22;31474;45.332;10.230;2022-09-24T10:33:26;18.00;97.20
45765;DHT22;31474;45.332;10.230;2022-09-24T10:36:04;18.00;97.40
45765;DHT22;31474;45.332;10.230;2022-09-24T10:38:31;18.00;97.40
45765;DHT22;31474;45.332;10.230;2022-09-24T10:40:57;17.90;97.30
45765;DHT22;31474;45.332;10.230;2022-09-24T10:43:23;18.00;99.00
45765;DHT22;31474;45.332;10.230;2022-09-24T10:46:08;18.00;99.70
45765;DHT22;31474;45.332;10.230;2022-09-24T10:51:28;17.90;99.90
45765;DHT22;31474;45.332;10.230;2022-09-24T10:56:40;17.80;99.90
45765;DHT22;31474;45.332;10.230;2022-09-24T11:13:04;17.90;99.90
45765;DHT22;31474;45.332;10.230;2022-09-24T11:19:02;18.00;99.90
45765;DHT22;31474;45.332;10.230;2022-09-24T11:21:49;18.00;99.90
45765;DHT22;31474;45.332;10.230;2022-09-24T11:27:04;18.00;99.90
45765;DHT22;31474;45.332;10.230;2022-09-24T11:29:47;18.10;99.90
45765;DHT22;31474;45.332;10.230;2022-09-24T11:32:41;18.00;99.90
45765;DHT22;31474;45.332;10.230;2022-09-24T11:38:37;18.00;99.90
45765;DHT22;31474;45.332;10.230;2022-09-24T11:43:57;18.00;99.90
45765;DHT22;31474;45.332;10.230;2022-09-24T11:46:43;18.00;99.90
45765;DHT22;31474;45.332;10.230;2022-09-24T11:49:43;18.10;99.90
45765;DHT22;31474;45.332;10.230;2022-09-24T11:57:30;18.20;99.90
45765;DHT22;31474;45.332;10.230;2022-09-24T12:00:04;18.20;99.90
45765;DHT22;31474;45.332;10.230;2022-09-24T12:02:51;18.20;99.90
45765;DHT22;31474;45.332;10.230;2022-09-24T12:13:48;18.20;99.90
45765;DHT22;31474;45.332;10.230;2022-09-24T12:16:26;18.20;99.90
45765;DHT22;31474;45.332;10.230;2022-09-24T12:19:00;18.30;99.90
45765;DHT22;31474;45.332;10.230;2022-09-24T12:21:37;18.30;99.90
45765;DHT22;31474;45.332;10.230;2022-09-24T12:24:33;18.30;99.90
45765;DHT22;31474;45.332;10.230;2022-09-24T12:27:00;18.40;99.90
45765;DHT22;31474;45.332;10.230;2022-09-24T12:35:32;18.40;99.90
45765;DHT22;31474;45.332;10.230;2022-09-24T12:38:23;18.40;99.90
45765;DHT22;31474;45.332;10.230;2022-09-24T12:54:42;18.40;99.90
45765;DHT22;31474;45.332;10.230;2022-09-24T12:57:13;18.30;99.90
45765;DHT22;31474;45.332;10.230;2022-09-24T13:02:17;18.30;99.90
45765;DHT22;31474;45.332;10.230;2022-09-24T13:04:49;18.30;99.90
45765;DHT22;31474;45.332;10.230;2022-09-24T13:07:40;18.20;99.90
45765;DHT22;31474;45.332;10.230;2022-09-24T13:12:41;18.20;99.90
45765;DHT22;31474;45.332;10.230;2022-09-24T13:18:25;18.20;99.90
45765;DHT22;31474;45.332;10.230;2022-09-24T13:21:03;18.30;99.90
45765;DHT22;31474;45.332;10.230;2022-09-24T13:28:31;18.40;99.90
45765;DHT22;31474;45.332;10.230;2022-09-24T13:31:21;18.40;99.90
45765;DHT22;31474;45.332;10.230;2022-09-24T13:33:57;18.40;99.90
45765;DHT22;31474;45.332;10.230;2022-09-24T13:36:34;18.40;99.90
45765;DHT22;31474;45.332;10.230;2022-09-24T13:41:52;18.50;99.90
45765;DHT22;31474;45.332;10.230;2022-09-24T13:44:47;18.40;99.90
45765;DHT22;31474;45.332;10.230;2022-09-24T13:47:15;18.40;99.90
45765;DHT22;31474;45.332;10.230;2022-09-24T13:49:47;18.40;99.90
45765;DHT22;31474;45.332;10.230;2022-09-24T13:54:57;18.40;99.90
45765;DHT22;31474;45.332;10.230;2022-09-24T13:57:28;18.40;99.90
45765;DHT22;31474;45.332;10.230;2022-09-24T14:00:19;18.40;99.80
45765;DHT22;31474;45.332;10.230;2022-09-24T14:03:00;18.40;99.80
45765;DHT22;31474;45.332;10.230;2022-09-24T14:05:30;18.50;99.90
45765;DHT22;31474;45.332;10.230;2022-09-24T14:08:03;18.40;99.80
45765;DHT22;31474;45.332;10.230;2022-09-24T14:10:30;18.50;99.70
45765;DHT22;31474;45.332;10.230;2022-09-24T14:13:15;18.60;99.50
45765;DHT22;31474;45.332;10.230;2022-09-24T14:15:51;18.60;99.50
45765;DHT22;31474;45.332;10.230;2022-09-24T14:18:17;18.60;99.10
45765;DHT22;31474;45.332;10.230;2022-09-24T14:20:43;18.70;99.20
45765;DHT22;31474;45.332;10.230;2022-09-24T14:23:18;18.70;99.10
45765;DHT22;31474;45.332;10.230;2022-09-24T14:25:45;18.70;99.10
45765;DHT22;31474;45.332;10.230;2022-09-24T14:28:12;18.70;98.90
45765;DHT22;31474;45.332;10.230;2022-09-24T14:30:49;18.70;99.10
45765;DHT22;31474;45.332;10.230;2022-09-24T14:33:16;18.60;99.00
45765;DHT22;31474;45.332;10.230;2022-09-24T14:35:48;18.50;99.40
45765;DHT22;31474;45.332;10.230;2022-09-24T14:38:29;18.50;99.50
45765;DHT22;31474;45.332;10.230;2022-09-24T14:41:05;18.40;99.40
45765;DHT22;31474;45.332;10.230;2022-09-24T14:46:07;18.30;99.60
45765;DHT22;31474;45.332;10.230;2022-09-24T14:48:34;18.30;99.50
45765;DHT22;31474;45.332;10.230;2022-09-24T14:51:00;18.30;99.10
45765;DHT22;31474;45.332;10.230;2022-09-24T14:53:36;18.30;99.60
45765;DHT22;31474;45.332;10.230;2022-09-24T14:56:19;18.20;99.50
45765;DHT22;31474;45.332;10.230;2022-09-24T14:58:44;18.30;99.90
45765;DHT22;31474;45.332;10.230;2022-09-24T15:01:15;18.30;99.90
45765;DHT22;31474;45.332;10.230;2022-09-24T15:03:50;18.40;99.90
45765;DHT22;31474;45.332;10.230;2022-09-24T15:06:35;18.40;99.90
45765;DHT22;31474;45.332;10.230;2022-09-24T15:09:05;18.40;99.90
45765;DHT22;31474;45.332;10.230;2022-09-24T15:11:34;18.40;99.90
45765;DHT22;31474;45.332;10.230;2022-09-24T15:14:29;18.40;99.90
45765;DHT22;31474;45.332;10.230;2022-09-24T15:16:52;18.50;99.90
45765;DHT22;31474;45.332;10.230;2022-09-24T15:19:23;18.50;99.90
45765;DHT22;31474;45.332;10.230;2022-09-24T15:21:51;18.40;99.90
45765;DHT22;31474;45.332;10.230;2022-09-24T15:24:18;18.40;99.90
45765;DHT22;31474;45.332;10.230;2022-09-24T15:26:47;18.40;99.80
45765;DHT22;31474;45.332;10.230;2022-09-24T15:29:20;18.40;99.90
45765;DHT22;31474;45.332;10.230;2022-09-24T15:31:49;18.40;99.90
45765;DHT22;31474;45.332;10.230;2022-09-24T15:34:15;18.40;99.90
45765;DHT22;31474;45.332;10.230;2022-09-24T15:36:40;18.40;99.90
45765;DHT22;31474;45.332;10.230;2022-09-24T15:39:06;18.40;99.90
45765;DHT22;31474;45.332;10.230;2022-09-24T15:41:34;18.40;99.90
45765;DHT22;31474;45.332;10.230;2022-09-24T15:44:00;18.40;99.90
45765;DHT22;31474;45.332;10.230;2022-09-24T15:46:26;18.40;99.90
45765;DHT22;31474;45.332;10.230;2022-09-24T15:48:51;18.50;99.90
45765;DHT22;31474;45.332;10.230;2022-09-24T15:51:19;18.50;99.90
45765;DHT22;31474;45.332;10.230;2022-09-24T15:53:46;18.50;99.90
45765;DHT22;31474;45.332;10.230;2022-09-24T15:56:12;18.50;99.90
45765;DHT22;31474;45.332;10.230;2022-09-24T15:58:38;18.40;99.90
45765;DHT22;31474;45.332;10.230;2022-09-24T16:01:03;18.50;99.90
45765;DHT22;31474;45.332;10.230;2022-09-24T16:03:31;18.50;99.90
45765;DHT22;31474;45.332;10.230;2022-09-24T16:05:58;18.50;99.90
45765;DHT22;31474;45.332;10.230;2022-09-24T16:08:25;18.60;99.90
45765;DHT22;31474;45.332;10.230;2022-09-24T16:10:51;18.50;99.90
45765;DHT22;31474;45.332;10.230;2022-09-24T16:13:17;18.50;99.90
45765;DHT22;31474;45.332;10.230;2022-09-24T16:15:43;18.40;99.90
45765;DHT22;31474;45.332;10.230;2022-09-24T16:18:12;18.40;99.90
45765;DHT22;31474;45.332;10.230;2022-09-24T16:20:39;18.40;99.90
45765;DHT22;31474;45.332;10.230;2022-09-24T16:23:05;18.40;99.90
45765;DHT22;31474;45.332;10.230;2022-09-24T16:25:31;18.40;99.90
45765;DHT22;31474;45.332;10.230;2022-09-24T16:27:57;18.40;99.90
45765;DHT22;31474;45.332;10.230;2022-09-24T16:30:23;18.30;99.90
45765;DHT22;31474;45.332;10.230;2022-09-24T16:32:49;18.40;99.90
45765;DHT22;31474;45.332;10.230;2022-09-24T16:35:15;18.40;99.90
45765;DHT22;31474;45.332;10.230;2022-09-24T16:37:41;18.30;99.90
45765;DHT22;31474;45.332;10.230;2022-09-24T16:40:07;18.30;99.90
45765;DHT22;31474;45.332;10.230;2022-09-24T16:42:33;18.30;99.90
45765;DHT22;31474;45.332;10.230;2022-09-24T16:44:59;18.30;99.90
45765;DHT22;31474;45.332;10.230;2022-09-24T16:47:25;18.30;99.90
45765;DHT22;31474;45.332;10.230;2022-09-24T16:49:50;18.30;99.90
45765;DHT22;31474;45.332;10.230;2022-09-24T16:52:16;18.30;99.90
45765;DHT22;31474;45.332;10.230;2022-09-24T16:54:42;18.30;99.90
45765;DHT22;31474;45.332;10.230;2022-09-24T16:57:08;18.30;99.90
45765;DHT22;31474;45.332;10.230;2022-09-24T16:59:33;18.30;99.90
45765;DHT22;31474;45.332;10.230;2022-09-24T17:01:59;18.40;99.90
45765;DHT22;31474;45.332;10.230;2022-09-24T17:04:25;18.30;99.90
45765;DHT22;31474;45.332;10.230;2022-09-24T17:06:55;18.30;99.90
45765;DHT22;31474;45.332;10.230;2022-09-24T17:09:21;18.40;99.90
45765;DHT22;31474;45.332;10.230;2022-09-24T17:12:06;18.40;99.90
45765;DHT22;31474;45.332;10.230;2022-09-24T17:14:32;18.30;99.90
45765;DHT22;31474;45.332;10.230;2022-09-24T17:17:00;18.30;99.90
45765;DHT22;31474;45.332;10.230;2022-09-24T17:19:26;18.30;99.90
45765;DHT22;31474;45.332;10.230;2022-09-24T17:21:51;18.10;99.90
45765;DHT22;31474;45.332;10.230;2022-09-24T17:24:18;18.10;99.90
45765;DHT22;31474;45.332;10.230;2022-09-24T17:26:44;18.00;99.90
45765;DHT22;31474;45.332;10.230;2022-09-24T17:29:10;18.00;99.90
45765;DHT22;31474;45.332;10.230;2022-09-24T17:31:37;18.00;99.90
45765;DHT22;31474;45.332;10.230;2022-09-24T17:34:07;18.00;99.90
45765;DHT22;31474;45.332;10.230;2022-09-24T17:36:37;18.00;99.90
45765;DHT22;31474;45.332;10.230;2022-09-24T17:39:04;18.00;99.90
45765;DHT22;31474;45.332;10.230;2022-09-24T17:41:31;17.90;99.90